Terminal Aerodrome Forecast
Issued by NWS

Current Version | Previous Version | Text Only | Print | Product List | Glossary On
Versions: 1 2 3 4 5 6 7 8 9 10 11 12 13 14 15 16
000
FTUS45 KTFX 210500
TAFLWT
TAF
KLWT 210520Z 2106/2206 33006KT P6SM BKN100
     FM210900 25007KT P6SM -SHRA SCT020 OVC035 PROB30 2117/2123 5SM
      -RA BR SCT015 OVC025=

USA.gov is the U.S. government's official web portal to all federal, state and local government web resources and services.